createdAt,value
2019-01-25T00:00:11.426Z,-2.30
2019-01-25T00:02:40.222Z,-2.20
2019-01-25T00:05:08.869Z,-2.30
2019-01-25T00:07:37.407Z,-2.40
2019-01-25T00:10:08.232Z,-2.40
2019-01-25T00:12:36.779Z,-2.40
2019-01-25T00:15:08.667Z,-2.20
2019-01-25T00:17:37.275Z,-2.30
2019-01-25T00:20:13.171Z,-2.40
2019-01-25T00:22:41.954Z,-2.50
2019-01-25T00:25:10.855Z,-2.70
2019-01-25T00:27:39.430Z,-2.70
2019-01-25T00:30:13.905Z,-2.60
2019-01-25T00:32:42.750Z,-2.60
2019-01-25T00:35:11.538Z,-2.60
2019-01-25T00:37:40.326Z,-2.60
2019-01-25T00:40:12.288Z,-2.60
2019-01-25T00:42:41.170Z,-2.50
2019-01-25T00:45:11.255Z,-2.40
2019-01-25T00:47:39.906Z,-2.30
2019-01-25T00:50:14.265Z,-2.50
2019-01-25T00:52:42.786Z,-2.50
2019-01-25T00:55:11.579Z,-2.60
2019-01-25T00:57:40.643Z,-2.60
2019-01-25T01:00:12.561Z,-2.60
2019-01-25T01:02:41.460Z,-2.60
2019-01-25T01:05:10.256Z,-2.50
2019-01-25T01:07:38.981Z,-2.50
2019-01-25T01:10:14.115Z,-2.50
2019-01-25T01:12:40.539Z,-2.60
2019-01-25T01:15:12.221Z,-2.60
2019-01-25T01:17:40.863Z,-2.60
2019-01-25T01:20:12.256Z,-2.70
2019-01-25T01:22:40.902Z,-2.50
2019-01-25T01:25:10.492Z,-2.50
2019-01-25T01:27:39.214Z,-2.50
2019-01-25T01:30:17.125Z,-2.60
2019-01-25T01:32:46.068Z,-2.60
2019-01-25T01:35:15.057Z,-2.70
2019-01-25T01:37:43.782Z,-2.70
2019-01-25T01:40:22.119Z,-2.80
2019-01-25T01:42:48.528Z,-2.70
2019-01-25T01:45:17.820Z,-2.70
2019-01-25T01:47:46.457Z,-2.60
2019-01-25T01:50:17.013Z,-2.60
2019-01-25T01:52:46.216Z,-2.60
2019-01-25T01:55:14.837Z,-2.60
2019-01-25T01:57:43.445Z,-2.60
2019-01-25T02:00:15.366Z,-2.60
2019-01-25T02:02:43.913Z,-2.60
2019-01-25T02:05:12.633Z,-2.60
2019-01-25T02:07:41.250Z,-2.50
2019-01-25T02:10:29.552Z,-2.40
2019-01-25T02:12:55.881Z,-2.40
2019-01-25T02:15:24.593Z,-2.40
2019-01-25T02:17:53.672Z,-2.50
2019-01-25T02:20:25.073Z,-2.70
2019-01-25T02:22:53.702Z,-2.90
2019-01-25T02:25:22.718Z,-3.00
2019-01-25T02:27:51.414Z,-3.00
2019-01-25T02:30:22.346Z,-3.00
2019-01-25T02:32:51.059Z,-2.90
2019-01-25T02:35:19.702Z,-2.80
2019-01-25T02:37:48.317Z,-2.70
2019-01-25T02:40:19.643Z,-2.70
2019-01-25T02:42:48.259Z,-2.70
2019-01-25T02:45:17.111Z,-2.70
2019-01-25T02:47:46.208Z,-2.70
2019-01-25T02:50:17.062Z,-2.70
2019-01-25T02:52:45.692Z,-2.70
2019-01-25T02:55:15.915Z,-2.70
2019-01-25T02:57:44.524Z,-2.60
2019-01-25T03:00:24.491Z,-2.60
2019-01-25T03:02:53.792Z,-2.60
2019-01-25T03:05:23.903Z,-2.60
2019-01-25T03:07:52.693Z,-2.60
2019-01-25T03:10:28.461Z,-2.60
2019-01-25T03:12:53.047Z,-2.40
2019-01-25T03:15:23.877Z,-2.50
2019-01-25T03:17:52.868Z,-2.60
2019-01-25T03:20:21.674Z,-2.60
2019-01-25T03:22:50.294Z,-2.60
2019-01-25T03:25:21.110Z,-2.60
2019-01-25T03:27:49.735Z,-2.60
2019-01-25T03:30:25.657Z,-2.50
2019-01-25T03:32:54.781Z,-2.60
2019-01-25T03:35:25.462Z,-2.50
2019-01-25T03:37:54.455Z,-2.30
2019-01-25T03:40:25.158Z,-2.40
2019-01-25T03:42:54.043Z,-2.50
2019-01-25T03:45:23.268Z,-2.30
2019-01-25T03:47:52.090Z,-2.40
2019-01-25T03:50:26.033Z,-2.50
2019-01-25T03:52:54.717Z,-2.50
2019-01-25T03:55:24.430Z,-2.60
2019-01-25T03:57:53.151Z,-2.60
2019-01-25T04:00:26.607Z,-2.60
2019-01-25T04:02:55.226Z,-2.50
2019-01-25T04:05:23.947Z,-2.50
2019-01-25T04:07:52.571Z,-2.30
2019-01-25T04:10:23.954Z,-2.30
2019-01-25T04:12:52.593Z,-2.50
2019-01-25T04:15:23.338Z,-2.50
2019-01-25T04:17:51.886Z,-2.50
2019-01-25T04:20:22.222Z,-2.60
2019-01-25T04:22:50.902Z,-2.50
2019-01-25T04:25:21.626Z,-2.60
2019-01-25T04:27:50.830Z,-2.60
2019-01-25T04:30:24.252Z,-2.60
2019-01-25T04:32:52.944Z,-2.50
2019-01-25T04:35:21.569Z,-2.30
2019-01-25T04:37:50.054Z,-2.20
2019-01-25T04:40:19.263Z,-2.30
2019-01-25T04:42:48.049Z,-2.40
2019-01-25T04:45:18.743Z,-2.50
2019-01-25T04:47:47.449Z,-2.50
2019-01-25T04:50:21.506Z,-2.50
2019-01-25T04:52:50.355Z,-2.60
2019-01-25T04:55:21.514Z,-2.50
2019-01-25T04:57:50.261Z,-2.50
2019-01-25T05:00:21.222Z,-2.50
2019-01-25T05:02:58.122Z,-2.50
2019-01-25T05:05:27.507Z,-2.30
2019-01-25T05:08:05.448Z,-2.40
2019-01-25T05:10:34.267Z,-2.50
2019-01-25T05:13:02.934Z,-2.50
2019-01-25T05:15:31.610Z,-2.50
2019-01-25T05:18:00.267Z,-2.60
2019-01-25T05:20:29.066Z,-2.60
2019-01-25T05:23:00.194Z,-2.50
2019-01-25T05:25:29.093Z,-2.30
2019-01-25T05:27:59.484Z,-2.00
2019-01-25T05:30:28.109Z,-2.00
2019-01-25T05:32:56.839Z,-2.10
2019-01-25T05:35:26.915Z,-2.30
2019-01-25T05:37:55.495Z,-2.50
2019-01-25T05:40:26.425Z,-2.60
2019-01-25T05:42:54.998Z,-2.60
2019-01-25T05:45:23.630Z,-2.60
2019-01-25T05:47:52.199Z,-2.70
2019-01-25T05:50:20.828Z,-2.60
2019-01-25T05:52:49.472Z,-2.60
2019-01-25T05:55:20.530Z,-2.60
2019-01-25T05:57:49.247Z,-2.60
2019-01-25T06:00:19.501Z,-2.60
2019-01-25T06:02:48.154Z,-2.60
2019-01-25T06:05:17.341Z,-2.60
2019-01-25T06:07:45.979Z,-2.60
2019-01-25T06:10:14.636Z,-2.60
2019-01-25T06:12:43.210Z,-2.60
2019-01-25T06:15:13.390Z,-2.60
2019-01-25T06:17:41.966Z,-2.60
2019-01-25T06:20:12.058Z,-2.50
2019-01-25T06:22:41.398Z,-2.50
2019-01-25T06:25:09.944Z,-2.30
2019-01-25T06:27:40.137Z,-2.40
2019-01-25T06:30:13.823Z,-2.50
2019-01-25T06:32:42.469Z,-2.40
2019-01-25T06:35:12.209Z,-2.40
2019-01-25T06:37:40.823Z,-2.50
2019-01-25T06:40:14.758Z,-2.50
2019-01-25T06:42:43.303Z,-2.60
2019-01-25T06:45:12.958Z,-2.50
2019-01-25T06:47:41.506Z,-2.60
2019-01-25T06:50:12.880Z,-2.60
2019-01-25T06:52:41.429Z,-2.50
2019-01-25T06:55:10.144Z,-2.50
2019-01-25T06:57:46.406Z,-2.60
2019-01-25T07:00:18.466Z,-2.60
2019-01-25T07:02:47.254Z,-2.50
2019-01-25T07:05:15.830Z,-2.50
2019-01-25T07:07:45.954Z,-2.50
2019-01-25T07:10:17.669Z,-2.30
2019-01-25T07:12:46.281Z,-2.40
2019-01-25T07:15:16.658Z,-2.50
2019-01-25T07:17:46.567Z,-2.50
2019-01-25T07:20:16.575Z,-2.50
2019-01-25T07:22:45.077Z,-2.50
2019-01-25T07:25:15.396Z,-2.50
2019-01-25T07:27:43.945Z,-2.40
2019-01-25T07:30:16.987Z,-2.30
2019-01-25T07:32:45.707Z,-2.10
2019-01-25T07:35:14.400Z,-2.20
2019-01-25T07:37:43.029Z,-2.20
2019-01-25T07:40:12.064Z,-2.10
2019-01-25T07:42:40.774Z,-2.10
2019-01-25T07:45:12.010Z,-2.00
2019-01-25T07:47:40.540Z,-2.00
2019-01-25T07:50:12.627Z,-2.10
2019-01-25T07:52:41.641Z,-1.90
2019-01-25T07:55:13.422Z,-2.00
2019-01-25T07:57:41.981Z,-2.10
2019-01-25T08:00:13.170Z,-2.20
2019-01-25T08:02:41.721Z,-2.10
2019-01-25T08:05:11.330Z,-2.00
2019-01-25T08:07:39.886Z,-2.20
2019-01-25T08:10:14.161Z,-2.10
2019-01-25T08:12:42.760Z,-2.10
2019-01-25T08:15:14.587Z,-2.00
2019-01-25T08:17:43.206Z,-2.00
2019-01-25T08:20:13.323Z,-2.00
2019-01-25T08:22:42.286Z,-1.80
2019-01-25T08:25:11.067Z,-2.00
2019-01-25T08:27:39.637Z,-1.80
2019-01-25T08:30:16.500Z,-1.90
2019-01-25T08:32:45.126Z,-1.90
2019-01-25T08:35:15.011Z,-1.70
2019-01-25T08:37:43.706Z,-1.60
2019-01-25T08:40:16.389Z,-1.60
2019-01-25T08:42:45.095Z,-1.60
2019-01-25T08:45:18.687Z,-1.60
2019-01-25T08:47:47.353Z,-1.50
2019-01-25T08:50:21.825Z,-1.50
2019-01-25T08:52:50.543Z,-1.60
2019-01-25T08:55:21.306Z,-1.50
2019-01-25T08:57:49.485Z,-1.50
2019-01-25T09:00:20.600Z,-1.50
2019-01-25T09:02:49.267Z,-1.50
2019-01-25T09:05:18.834Z,-1.50
2019-01-25T09:07:47.765Z,-1.50
2019-01-25T09:10:18.908Z,-1.40
2019-01-25T09:12:47.566Z,-1.30
2019-01-25T09:15:19.028Z,-1.30
2019-01-25T09:17:47.734Z,-1.30
2019-01-25T09:20:21.431Z,-1.40
2019-01-25T09:22:50.069Z,-1.20
2019-01-25T09:25:18.758Z,-1.20
2019-01-25T09:27:47.988Z,-1.20
2019-01-25T09:30:22.711Z,-1.10
2019-01-25T09:32:51.555Z,-1.10
2019-01-25T09:35:20.645Z,-1.00
2019-01-25T09:37:50.342Z,-1.20
2019-01-25T09:40:22.523Z,-1.10
2019-01-25T09:42:51.848Z,-1.00
2019-01-25T09:45:21.044Z,-0.90
2019-01-25T09:47:49.718Z,-0.90
2019-01-25T09:50:20.245Z,-0.90
2019-01-25T09:52:49.151Z,-0.90
2019-01-25T09:55:25.245Z,-0.90
2019-01-25T09:57:56.727Z,-0.90
2019-01-25T10:00:33.982Z,-0.90
2019-01-25T10:03:02.567Z,-1.00
2019-01-25T10:05:31.183Z,-0.90
2019-01-25T10:07:59.730Z,-0.80
2019-01-25T10:10:28.307Z,-0.80
2019-01-25T10:12:56.852Z,-0.80
2019-01-25T10:15:27.797Z,-0.70
2019-01-25T10:17:56.473Z,-0.70
2019-01-25T10:20:25.287Z,-0.70
2019-01-25T10:22:53.895Z,-0.70
2019-01-25T10:25:22.537Z,-0.60
2019-01-25T10:27:51.152Z,-0.60
2019-01-25T10:30:22.906Z,-0.60
2019-01-25T10:32:51.541Z,-0.60
2019-01-25T10:35:20.247Z,-0.60
2019-01-25T10:37:49.033Z,-0.50
2019-01-25T10:40:20.224Z,-0.50
2019-01-25T10:42:53.354Z,-0.50
2019-01-25T10:45:30.917Z,-0.50
2019-01-25T10:47:59.529Z,-0.40
2019-01-25T10:50:28.166Z,-0.40
2019-01-25T10:52:56.882Z,-0.40
2019-01-25T10:55:25.593Z,-0.30
2019-01-25T10:57:54.286Z,-0.40
2019-01-25T11:00:23.253Z,-0.50
2019-01-25T11:02:58.106Z,-0.40
2019-01-25T11:05:27.488Z,-0.40
2019-01-25T11:07:56.046Z,-0.40
2019-01-25T11:10:24.754Z,-0.40
2019-01-25T11:13:00.515Z,-0.30
2019-01-25T11:15:25.582Z,-0.30
2019-01-25T11:17:54.134Z,-0.30
2019-01-25T11:20:24.762Z,-0.50
2019-01-25T11:22:53.760Z,-0.50
2019-01-25T11:25:31.743Z,-0.50
2019-01-25T11:28:00.309Z,-0.40
2019-01-25T11:30:29.002Z,-0.40
2019-01-25T11:32:57.576Z,-0.50
2019-01-25T11:35:26.045Z,-0.30
2019-01-25T11:37:54.557Z,-0.20
2019-01-25T11:40:35.134Z,-0.10
2019-01-25T11:43:08.420Z,-0.10
2019-01-25T11:45:33.963Z,-0.10
2019-01-25T11:48:02.601Z,-0.10
2019-01-25T11:50:31.400Z,-0.10
2019-01-25T11:52:59.965Z,0.00
2019-01-25T11:55:28.436Z,0.00
2019-01-25T11:57:57.000Z,0.00
2019-01-25T12:00:28.187Z,0.10
2019-01-25T12:02:56.828Z,0.20
2019-01-25T12:05:25.942Z,0.20
2019-01-25T12:07:55.442Z,0.20
2019-01-25T12:10:31.791Z,0.20
2019-01-25T12:13:00.359Z,0.30
2019-01-25T12:15:28.903Z,0.30
2019-01-25T12:17:57.471Z,0.30
2019-01-25T12:20:28.087Z,0.30
2019-01-25T12:22:56.720Z,0.20
2019-01-25T12:25:25.401Z,0.20
2019-01-25T12:27:54.242Z,0.20
2019-01-25T12:30:39.117Z,0.40
2019-01-25T12:33:08.125Z,0.50
2019-01-25T12:35:38.897Z,0.60
2019-01-25T12:38:07.464Z,0.60
2019-01-25T12:40:36.010Z,0.50
2019-01-25T12:43:05.321Z,0.50
2019-01-25T12:45:34.307Z,0.60
2019-01-25T12:48:02.958Z,0.60
2019-01-25T12:50:37.619Z,0.60
2019-01-25T12:53:08.334Z,0.70
2019-01-25T12:55:36.887Z,0.80
2019-01-25T12:58:06.027Z,0.80
2019-01-25T13:00:34.574Z,0.80
2019-01-25T13:03:03.283Z,0.70
2019-01-25T13:05:31.947Z,0.60
2019-01-25T13:08:00.491Z,0.60
2019-01-25T13:10:29.289Z,0.60
2019-01-25T13:12:58.010Z,0.60
2019-01-25T13:15:26.622Z,0.60
2019-01-25T13:17:55.215Z,0.60
2019-01-25T13:20:28.623Z,0.60
2019-01-25T13:22:57.349Z,0.70
2019-01-25T13:25:25.908Z,0.70
2019-01-25T13:27:54.561Z,0.70
2019-01-25T13:30:26.130Z,0.70
2019-01-25T13:32:54.750Z,0.80
2019-01-25T13:35:23.601Z,0.80
2019-01-25T13:37:52.495Z,0.80
2019-01-25T13:40:28.426Z,0.80
2019-01-25T13:42:57.341Z,0.70
2019-01-25T13:45:25.981Z,0.70
2019-01-25T13:47:54.668Z,0.70
2019-01-25T13:50:28.683Z,0.80
2019-01-25T13:52:57.235Z,0.80
2019-01-25T13:55:26.257Z,1.00
2019-01-25T13:57:54.932Z,1.00
2019-01-25T14:00:34.850Z,0.90
2019-01-25T14:03:03.832Z,0.90
2019-01-25T14:05:32.412Z,0.90
2019-01-25T14:08:00.953Z,0.90
2019-01-25T14:10:32.057Z,0.90
2019-01-25T14:13:00.598Z,0.90
2019-01-25T14:15:29.401Z,0.90
2019-01-25T14:17:57.865Z,0.90
2019-01-25T14:20:29.038Z,0.80
2019-01-25T14:22:57.608Z,0.90
2019-01-25T14:25:26.313Z,1.00
2019-01-25T14:27:54.849Z,1.00
2019-01-25T14:30:34.686Z,1.00
2019-01-25T14:33:03.758Z,1.00
2019-01-25T14:35:32.386Z,1.00
2019-01-25T14:38:01.129Z,1.10
2019-01-25T14:40:29.811Z,1.10
2019-01-25T14:42:58.381Z,1.10
2019-01-25T14:45:27.295Z,1.10
2019-01-25T14:47:56.008Z,1.10
2019-01-25T14:50:27.459Z,1.10
2019-01-25T14:52:56.110Z,1.10
2019-01-25T14:55:24.715Z,1.00
2019-01-25T14:57:53.414Z,0.90
2019-01-25T15:00:22.022Z,0.90
2019-01-25T15:02:50.594Z,0.80
2019-01-25T15:05:20.381Z,0.80
2019-01-25T15:07:49.094Z,0.90
2019-01-25T15:10:22.738Z,1.00
2019-01-25T15:12:52.374Z,1.00
2019-01-25T15:15:20.922Z,1.00
2019-01-25T15:17:49.657Z,1.00
2019-01-25T15:20:23.488Z,1.00
2019-01-25T15:22:52.054Z,1.00
2019-01-25T15:25:20.672Z,1.00
2019-01-25T15:27:49.239Z,0.90
2019-01-25T15:30:20.863Z,0.90
2019-01-25T15:32:49.497Z,0.90
2019-01-25T15:35:19.986Z,0.90
2019-01-25T15:37:48.687Z,0.90
2019-01-25T15:40:19.168Z,0.80
2019-01-25T15:42:47.906Z,0.90
2019-01-25T15:45:18.412Z,0.80
2019-01-25T15:47:46.985Z,0.80
2019-01-25T15:50:18.601Z,0.70
2019-01-25T15:52:47.181Z,0.80
2019-01-25T15:55:16.165Z,0.80
2019-01-25T15:57:44.734Z,0.80
2019-01-25T16:00:15.835Z,0.80
2019-01-25T16:02:44.467Z,0.70
2019-01-25T16:05:16.169Z,0.70
2019-01-25T16:07:44.870Z,0.70
2019-01-25T16:10:15.857Z,0.70
2019-01-25T16:12:44.498Z,0.60
2019-01-25T16:15:18.814Z,0.70
2019-01-25T16:17:47.653Z,0.50
2019-01-25T16:20:19.665Z,0.40
2019-01-25T16:22:49.803Z,0.40
2019-01-25T16:25:24.229Z,0.80
2019-01-25T16:27:52.812Z,0.80
2019-01-25T16:30:24.293Z,0.80
2019-01-25T16:32:52.893Z,0.60
2019-01-25T16:35:21.469Z,0.60
2019-01-25T16:37:50.078Z,0.50
2019-01-25T16:40:21.391Z,0.50
2019-01-25T16:42:49.946Z,0.60
2019-01-25T16:45:27.541Z,0.60
2019-01-25T16:47:56.087Z,0.70
2019-01-25T16:50:24.938Z,0.70
2019-01-25T16:52:53.474Z,0.70
2019-01-25T16:55:22.057Z,1.00
2019-01-25T16:57:50.618Z,0.90
2019-01-25T17:00:34.029Z,0.90
2019-01-25T17:03:02.571Z,0.90
2019-01-25T17:05:31.288Z,1.00
2019-01-25T17:07:59.922Z,0.90
2019-01-25T17:10:28.827Z,0.90
2019-01-25T17:12:57.378Z,0.80
2019-01-25T17:15:26.803Z,0.90
2019-01-25T17:17:55.475Z,1.00
2019-01-25T17:20:28.926Z,1.00
2019-01-25T17:22:57.839Z,1.00
2019-01-25T17:25:26.427Z,1.00
2019-01-25T17:27:55.030Z,1.00
2019-01-25T17:30:28.800Z,1.10
2019-01-25T17:32:59.091Z,1.10
2019-01-25T17:35:27.897Z,1.00
2019-01-25T17:37:56.578Z,1.00
2019-01-25T17:40:33.785Z,1.10
2019-01-25T17:43:02.251Z,1.10
2019-01-25T17:45:30.891Z,1.00
2019-01-25T17:47:59.435Z,1.10
2019-01-25T17:50:28.090Z,1.10
2019-01-25T17:52:56.617Z,1.10
2019-01-25T17:55:25.185Z,1.10
2019-01-25T17:57:53.797Z,1.20
2019-01-25T18:00:32.414Z,1.10
2019-01-25T18:03:01.037Z,1.20
2019-01-25T18:05:29.605Z,1.10
2019-01-25T18:07:58.153Z,1.10
2019-01-25T18:10:26.790Z,1.20
2019-01-25T18:12:55.406Z,1.20
2019-01-25T18:15:24.116Z,1.20
2019-01-25T18:17:52.657Z,1.20
2019-01-25T18:20:23.329Z,1.20
2019-01-25T18:22:52.216Z,1.20
2019-01-25T18:25:38.887Z,1.30
2019-01-25T18:28:10.510Z,1.30
2019-01-25T18:30:51.213Z,1.20
2019-01-25T18:33:19.840Z,1.20
2019-01-25T18:35:48.471Z,1.20
2019-01-25T18:38:17.012Z,1.20
2019-01-25T18:40:45.582Z,1.30
2019-01-25T18:43:14.341Z,1.30
2019-01-25T18:45:42.912Z,1.30
2019-01-25T18:48:11.446Z,1.30
2019-01-25T18:50:39.997Z,1.30
2019-01-25T18:53:08.568Z,1.30
2019-01-25T18:55:37.114Z,1.20
2019-01-25T18:58:05.694Z,1.20
2019-01-25T19:00:34.473Z,1.20
2019-01-25T19:03:02.971Z,1.20
2019-01-25T19:05:31.587Z,1.10
2019-01-25T19:08:00.172Z,1.10
2019-01-25T19:10:29.854Z,1.10
2019-01-25T19:12:58.495Z,1.00
2019-01-25T19:15:33.407Z,1.00
2019-01-25T19:18:02.050Z,0.90
2019-01-25T19:20:30.663Z,0.90
2019-01-25T19:22:59.301Z,1.00
2019-01-25T19:25:27.842Z,0.90
2019-01-25T19:27:56.481Z,0.90
2019-01-25T19:30:36.917Z,0.80
2019-01-25T19:33:06.290Z,0.80
2019-01-25T19:35:35.079Z,0.80
2019-01-25T19:38:03.805Z,0.90
2019-01-25T19:40:36.303Z,0.90
2019-01-25T19:43:06.235Z,0.90
2019-01-25T19:45:34.924Z,0.90
2019-01-25T19:48:03.933Z,0.80
2019-01-25T19:50:34.015Z,0.90
2019-01-25T19:53:02.741Z,0.90
2019-01-25T19:55:32.826Z,0.80
2019-01-25T19:58:04.263Z,0.70
2019-01-25T20:00:41.565Z,0.70
2019-01-25T20:03:10.299Z,0.70
2019-01-25T20:05:38.978Z,0.70
2019-01-25T20:08:07.789Z,0.70
2019-01-25T20:10:36.427Z,0.70
2019-01-25T20:13:05.958Z,0.60
2019-01-25T20:15:34.630Z,0.60
2019-01-25T20:18:03.368Z,0.60
2019-01-25T20:20:34.735Z,0.50
2019-01-25T20:23:03.554Z,0.60
2019-01-25T20:25:32.242Z,0.50
2019-01-25T20:28:00.891Z,0.50
2019-01-25T20:30:31.951Z,0.50
2019-01-25T20:33:01.870Z,0.50
2019-01-25T20:35:41.166Z,0.50
2019-01-25T20:38:09.992Z,0.50
2019-01-25T20:40:38.628Z,0.50
2019-01-25T20:43:07.267Z,0.50
2019-01-25T20:45:37.860Z,0.50
2019-01-25T20:48:06.779Z,0.40
2019-01-25T20:50:36.894Z,0.40
2019-01-25T20:53:07.106Z,0.40
2019-01-25T20:55:35.740Z,0.40
2019-01-25T20:58:04.930Z,0.40
2019-01-25T21:00:35.673Z,0.50
2019-01-25T21:03:05.424Z,0.40
2019-01-25T21:05:34.155Z,0.50
2019-01-25T21:08:02.774Z,0.40
2019-01-25T21:10:31.499Z,0.50
2019-01-25T21:13:00.128Z,0.40
2019-01-25T21:15:35.114Z,0.40
2019-01-25T21:17:59.868Z,0.30
2019-01-25T21:20:31.385Z,0.30
2019-01-25T21:23:00.067Z,0.30
2019-01-25T21:25:28.717Z,0.30
2019-01-25T21:27:57.274Z,0.20
2019-01-25T21:30:28.296Z,0.30
2019-01-25T21:32:56.987Z,0.30
2019-01-25T21:35:25.653Z,0.20
2019-01-25T21:37:54.276Z,0.20
2019-01-25T21:40:25.696Z,0.20
2019-01-25T21:42:54.318Z,0.20
2019-01-25T21:45:25.113Z,0.20
2019-01-25T21:47:54.022Z,0.20
2019-01-25T21:50:27.991Z,0.20
2019-01-25T21:52:56.694Z,0.20
2019-01-25T21:55:25.276Z,0.20
2019-01-25T21:57:53.900Z,0.30
2019-01-25T22:00:28.280Z,0.30
2019-01-25T22:02:56.891Z,0.20
2019-01-25T22:05:25.540Z,0.20
2019-01-25T22:07:54.225Z,0.20
2019-01-25T22:10:25.433Z,0.20
2019-01-25T22:12:54.132Z,0.20
2019-01-25T22:15:22.830Z,0.20
2019-01-25T22:17:51.482Z,0.30
2019-01-25T22:20:25.640Z,0.30
2019-01-25T22:22:54.357Z,0.30
2019-01-25T22:25:23.047Z,0.20
2019-01-25T22:27:52.971Z,0.20
2019-01-25T22:30:24.594Z,0.20
2019-01-25T22:32:53.324Z,0.30
2019-01-25T22:35:22.015Z,0.30
2019-01-25T22:37:50.654Z,0.30
2019-01-25T22:40:22.315Z,0.30
2019-01-25T22:42:50.963Z,0.30
2019-01-25T22:45:21.864Z,0.30
2019-01-25T22:47:50.572Z,0.30
2019-01-25T22:50:26.953Z,0.30
2019-01-25T22:52:55.884Z,0.30
2019-01-25T22:55:25.267Z,0.30
2019-01-25T22:57:53.910Z,0.30
2019-01-25T23:00:50.907Z,0.30
2019-01-25T23:03:28.333Z,0.30
2019-01-25T23:06:05.672Z,0.30
2019-01-25T23:08:34.254Z,0.30
2019-01-25T23:11:02.814Z,0.30
2019-01-25T23:13:31.637Z,0.30
2019-01-25T23:16:06.340Z,0.30
2019-01-25T23:18:30.439Z,0.30
2019-01-25T23:20:59.050Z,0.30
2019-01-25T23:23:27.657Z,0.40
2019-01-25T23:25:56.290Z,0.40
2019-01-25T23:28:24.860Z,0.40
2019-01-25T23:30:53.483Z,0.40
2019-01-25T23:33:22.050Z,0.40
2019-01-25T23:35:50.722Z,0.40
2019-01-25T23:38:19.587Z,0.40
2019-01-25T23:40:48.147Z,0.40
2019-01-25T23:43:16.723Z,0.40
2019-01-25T23:45:45.392Z,0.40
2019-01-25T23:48:13.969Z,0.40
2019-01-25T23:50:42.533Z,0.50
2019-01-25T23:53:11.048Z,0.50
2019-01-25T23:55:39.590Z,0.50
2019-01-25T23:58:08.232Z,0.50
